sensor_id;sensor_type;location;lat;lon;timestamp;pressure;altitude;pressure_sealevel;temperature;humidity
64628;BME280;68467;50.960;0.314;2023-09-08T00:02:10;99903.15;;;23.34;100.00
64628;BME280;68467;50.960;0.314;2023-09-08T00:04:37;99901.53;;;23.66;100.00
64628;BME280;68467;50.960;0.314;2023-09-08T00:07:05;99906.80;;;23.63;100.00
64628;BME280;68467;50.960;0.314;2023-09-08T00:09:32;99907.01;;;23.39;100.00
64628;BME280;68467;50.960;0.314;2023-09-08T00:11:59;99905.51;;;24.18;100.00
64628;BME280;68467;50.960;0.314;2023-09-08T00:14:26;99901.92;;;23.60;100.00
64628;BME280;68467;50.960;0.314;2023-09-08T00:16:54;99902.97;;;23.55;100.00
64628;BME280;68467;50.960;0.314;2023-09-08T00:19:21;99903.15;;;23.44;100.00
64628;BME280;68467;50.960;0.314;2023-09-08T00:21:48;99905.07;;;23.91;100.00
64628;BME280;68467;50.960;0.314;2023-09-08T00:24:16;99902.25;;;23.69;100.00
64628;BME280;68467;50.960;0.314;2023-09-08T00:26:43;99906.01;;;24.06;100.00
64628;BME280;68467;50.960;0.314;2023-09-08T00:29:10;99902.71;;;23.97;100.00
64628;BME280;68467;50.960;0.314;2023-09-08T00:31:37;99904.05;;;24.34;100.00
64628;BME280;68467;50.960;0.314;2023-09-08T00:34:05;99907.52;;;23.96;100.00
64628;BME280;68467;50.960;0.314;2023-09-08T00:36:33;99912.35;;;24.27;100.00
64628;BME280;68467;50.960;0.314;2023-09-08T00:38:59;99909.40;;;24.11;100.00
64628;BME280;68467;50.960;0.314;2023-09-08T00:41:26;99906.54;;;23.86;100.00
64628;BME280;68467;50.960;0.314;2023-09-08T00:43:53;99902.61;;;24.22;100.00
64628;BME280;68467;50.960;0.314;2023-09-08T00:46:20;99902.47;;;24.05;100.00
64628;BME280;68467;50.960;0.314;2023-09-08T00:48:48;99900.47;;;24.45;100.00
64628;BME280;68467;50.960;0.314;2023-09-08T00:51:16;99896.55;;;24.39;100.00
64628;BME280;68467;50.960;0.314;2023-09-08T00:53:43;99898.66;;;23.96;100.00
64628;BME280;68467;50.960;0.314;2023-09-08T00:56:11;99888.79;;;24.78;100.00
64628;BME280;68467;50.960;0.314;2023-09-08T00:58:39;99889.39;;;24.78;100.00
64628;BME280;68467;50.960;0.314;2023-09-08T01:01:06;99891.30;;;24.44;100.00
64628;BME280;68467;50.960;0.314;2023-09-08T01:03:33;99892.15;;;24.15;100.00
64628;BME280;68467;50.960;0.314;2023-09-08T01:06:00;99890.68;;;24.08;100.00
64628;BME280;68467;50.960;0.314;2023-09-08T01:08:28;99891.00;;;24.14;100.00
64628;BME280;68467;50.960;0.314;2023-09-08T01:10:56;99887.86;;;23.88;100.00
64628;BME280;68467;50.960;0.314;2023-09-08T01:13:24;99884.53;;;24.22;100.00
64628;BME280;68467;50.960;0.314;2023-09-08T01:15:51;99884.19;;;23.62;100.00
64628;BME280;68467;50.960;0.314;2023-09-08T01:18:18;99886.25;;;23.69;100.00
64628;BME280;68467;50.960;0.314;2023-09-08T01:21:13;99887.56;;;24.65;100.00
64628;BME280;68467;50.960;0.314;2023-09-08T01:23:58;99889.76;;;23.95;100.00
64628;BME280;68467;50.960;0.314;2023-09-08T01:26:33;99887.48;;;24.65;100.00
64628;BME280;68467;50.960;0.314;2023-09-08T01:29:03;99886.65;;;24.60;100.00
64628;BME280;68467;50.960;0.314;2023-09-08T01:31:32;99890.09;;;24.41;99.35
64628;BME280;68467;50.960;0.314;2023-09-08T01:34:00;99890.96;;;23.89;99.54
64628;BME280;68467;50.960;0.314;2023-09-08T01:36:29;99890.39;;;23.95;98.90
64628;BME280;68467;50.960;0.314;2023-09-08T01:38:55;99892.36;;;23.90;98.67
64628;BME280;68467;50.960;0.314;2023-09-08T01:41:22;99889.80;;;24.15;97.59
64628;BME280;68467;50.960;0.314;2023-09-08T01:43:49;99887.49;;;23.74;97.62
64628;BME280;68467;50.960;0.314;2023-09-08T01:46:16;99883.13;;;23.70;97.48
64628;BME280;68467;50.960;0.314;2023-09-08T01:48:43;99884.04;;;24.02;97.00
64628;BME280;68467;50.960;0.314;2023-09-08T01:51:10;99882.06;;;23.05;98.75
64628;BME280;68467;50.960;0.314;2023-09-08T01:53:37;99878.45;;;23.78;97.65
64628;BME280;68467;50.960;0.314;2023-09-08T01:56:04;99879.05;;;23.12;97.52
64628;BME280;68467;50.960;0.314;2023-09-08T01:58:31;99878.96;;;23.22;97.83
64628;BME280;68467;50.960;0.314;2023-09-08T02:00:58;99874.28;;;23.30;98.62
64628;BME280;68467;50.960;0.314;2023-09-08T02:03:25;99870.25;;;23.22;98.08
64628;BME280;68467;50.960;0.314;2023-09-08T02:05:52;99869.41;;;22.87;98.25
64628;BME280;68467;50.960;0.314;2023-09-08T02:08:19;99866.10;;;22.63;98.84
64628;BME280;68467;50.960;0.314;2023-09-08T02:10:46;99860.57;;;23.25;97.65
64628;BME280;68467;50.960;0.314;2023-09-08T02:13:14;99861.08;;;23.03;97.39
64628;BME280;68467;50.960;0.314;2023-09-08T02:15:41;99865.87;;;22.06;100.00
64628;BME280;68467;50.960;0.314;2023-09-08T02:18:08;99866.12;;;22.22;99.82
64628;BME280;68467;50.960;0.314;2023-09-08T02:20:35;99865.25;;;22.19;100.00
64628;BME280;68467;50.960;0.314;2023-09-08T02:23:05;99865.83;;;22.14;100.00
64628;BME280;68467;50.960;0.314;2023-09-08T02:25:33;99869.60;;;21.75;100.00
64628;BME280;68467;50.960;0.314;2023-09-08T02:28:00;99865.69;;;22.35;100.00
64628;BME280;68467;50.960;0.314;2023-09-08T02:30:27;99863.34;;;22.72;99.46
64628;BME280;68467;50.960;0.314;2023-09-08T02:32:54;99864.73;;;21.60;100.00
64628;BME280;68467;50.960;0.314;2023-09-08T02:35:23;99862.76;;;22.08;100.00
64628;BME280;68467;50.960;0.314;2023-09-08T02:37:50;99860.32;;;22.20;100.00
64628;BME280;68467;50.960;0.314;2023-09-08T02:40:18;99862.80;;;21.37;100.00
64628;BME280;68467;50.960;0.314;2023-09-08T02:42:44;99862.77;;;21.77;100.00
64628;BME280;68467;50.960;0.314;2023-09-08T02:45:11;99860.14;;;22.28;100.00
64628;BME280;68467;50.960;0.314;2023-09-08T02:47:39;99860.14;;;21.70;100.00
64628;BME280;68467;50.960;0.314;2023-09-08T02:50:07;99857.98;;;22.30;100.00
64628;BME280;68467;50.960;0.314;2023-09-08T02:52:34;99862.64;;;22.48;100.00
64628;BME280;68467;50.960;0.314;2023-09-08T02:55:01;99866.81;;;22.11;100.00
64628;BME280;68467;50.960;0.314;2023-09-08T02:57:28;99866.25;;;21.93;100.00
64628;BME280;68467;50.960;0.314;2023-09-08T02:59:56;99860.50;;;22.01;100.00
64628;BME280;68467;50.960;0.314;2023-09-08T03:02:24;99858.77;;;22.37;100.00
64628;BME280;68467;50.960;0.314;2023-09-08T03:04:51;99860.92;;;22.32;100.00
64628;BME280;68467;50.960;0.314;2023-09-08T03:07:19;99861.38;;;22.62;100.00
64628;BME280;68467;50.960;0.314;2023-09-08T03:09:47;99862.17;;;22.25;100.00
64628;BME280;68467;50.960;0.314;2023-09-08T03:12:15;99862.81;;;21.96;100.00
64628;BME280;68467;50.960;0.314;2023-09-08T03:14:42;99866.08;;;21.79;100.00
64628;BME280;68467;50.960;0.314;2023-09-08T03:17:09;99871.73;;;22.68;100.00
64628;BME280;68467;50.960;0.314;2023-09-08T03:19:36;99875.00;;;21.92;100.00
64628;BME280;68467;50.960;0.314;2023-09-08T03:22:03;99875.68;;;21.96;100.00
64628;BME280;68467;50.960;0.314;2023-09-08T03:24:31;99875.03;;;21.76;100.00
64628;BME280;68467;50.960;0.314;2023-09-08T03:26:58;99874.81;;;21.69;100.00
64628;BME280;68467;50.960;0.314;2023-09-08T03:29:25;99871.30;;;21.19;100.00
64628;BME280;68467;50.960;0.314;2023-09-08T03:31:52;99867.25;;;22.32;100.00
64628;BME280;68467;50.960;0.314;2023-09-08T03:34:19;99872.97;;;22.47;100.00
64628;BME280;68467;50.960;0.314;2023-09-08T03:36:46;99874.84;;;22.21;100.00
64628;BME280;68467;50.960;0.314;2023-09-08T03:39:14;99872.84;;;21.70;100.00
64628;BME280;68467;50.960;0.314;2023-09-08T03:41:41;99869.91;;;21.59;100.00
64628;BME280;68467;50.960;0.314;2023-09-08T03:44:08;99867.17;;;21.78;100.00
64628;BME280;68467;50.960;0.314;2023-09-08T03:46:35;99863.74;;;21.94;100.00
64628;BME280;68467;50.960;0.314;2023-09-08T03:49:03;99862.02;;;22.09;100.00
64628;BME280;68467;50.960;0.314;2023-09-08T03:51:30;99862.75;;;22.06;100.00
64628;BME280;68467;50.960;0.314;2023-09-08T03:53:57;99860.41;;;21.61;100.00
64628;BME280;68467;50.960;0.314;2023-09-08T03:56:24;99856.18;;;21.76;100.00
64628;BME280;68467;50.960;0.314;2023-09-08T03:58:51;99851.72;;;22.33;100.00
64628;BME280;68467;50.960;0.314;2023-09-08T04:01:19;99856.32;;;22.05;100.00
64628;BME280;68467;50.960;0.314;2023-09-08T04:03:45;99857.21;;;22.88;100.00
64628;BME280;68467;50.960;0.314;2023-09-08T04:06:12;99860.74;;;22.80;100.00
64628;BME280;68467;50.960;0.314;2023-09-08T04:08:39;99865.57;;;22.45;100.00
64628;BME280;68467;50.960;0.314;2023-09-08T04:11:06;99867.41;;;21.82;100.00
64628;BME280;68467;50.960;0.314;2023-09-08T04:13:33;99865.02;;;22.27;100.00
64628;BME280;68467;50.960;0.314;2023-09-08T04:16:00;99865.61;;;23.11;100.00
64628;BME280;68467;50.960;0.314;2023-09-08T04:18:27;99862.16;;;23.62;100.00
64628;BME280;68467;50.960;0.314;2023-09-08T04:20:54;99864.47;;;23.06;100.00
64628;BME280;68467;50.960;0.314;2023-09-08T04:23:21;99863.90;;;23.95;100.00
64628;BME280;68467;50.960;0.314;2023-09-08T04:25:48;99863.72;;;23.69;100.00
64628;BME280;68467;50.960;0.314;2023-09-08T04:28:15;99864.67;;;23.05;100.00
64628;BME280;68467;50.960;0.314;2023-09-08T04:30:42;99868.72;;;23.11;100.00
64628;BME280;68467;50.960;0.314;2023-09-08T04:33:09;99867.02;;;23.53;100.00
64628;BME280;68467;50.960;0.314;2023-09-08T04:35:36;99867.00;;;23.31;100.00
64628;BME280;68467;50.960;0.314;2023-09-08T04:38:03;99865.83;;;23.51;100.00
64628;BME280;68467;50.960;0.314;2023-09-08T04:40:31;99869.87;;;22.06;100.00
64628;BME280;68467;50.960;0.314;2023-09-08T04:42:58;99873.45;;;22.21;100.00
64628;BME280;68467;50.960;0.314;2023-09-08T04:45:25;99878.10;;;21.22;100.00
64628;BME280;68467;50.960;0.314;2023-09-08T04:47:52;99878.35;;;22.04;100.00
64628;BME280;68467;50.960;0.314;2023-09-08T04:50:19;99880.99;;;21.21;100.00
64628;BME280;68467;50.960;0.314;2023-09-08T04:52:46;99879.96;;;21.62;100.00
64628;BME280;68467;50.960;0.314;2023-09-08T04:55:13;99875.71;;;22.16;100.00
64628;BME280;68467;50.960;0.314;2023-09-08T04:57:40;99876.50;;;22.65;100.00
64628;BME280;68467;50.960;0.314;2023-09-08T05:00:08;99875.15;;;22.60;100.00
64628;BME280;68467;50.960;0.314;2023-09-08T05:02:35;99870.95;;;22.06;100.00
64628;BME280;68467;50.960;0.314;2023-09-08T05:05:03;99874.45;;;22.16;100.00
64628;BME280;68467;50.960;0.314;2023-09-08T05:07:30;99884.09;;;22.35;100.00
64628;BME280;68467;50.960;0.314;2023-09-08T05:09:57;99887.77;;;23.11;100.00
64628;BME280;68467;50.960;0.314;2023-09-08T05:12:25;99887.77;;;23.38;100.00
64628;BME280;68467;50.960;0.314;2023-09-08T05:14:51;99883.69;;;22.78;100.00
64628;BME280;68467;50.960;0.314;2023-09-08T05:17:18;99878.40;;;23.55;100.00
64628;BME280;68467;50.960;0.314;2023-09-08T05:19:45;99874.54;;;23.71;100.00
64628;BME280;68467;50.960;0.314;2023-09-08T05:22:12;99877.62;;;23.94;100.00
64628;BME280;68467;50.960;0.314;2023-09-08T05:24:39;99879.82;;;23.73;100.00
64628;BME280;68467;50.960;0.314;2023-09-08T05:27:06;99886.15;;;23.77;100.00
64628;BME280;68467;50.960;0.314;2023-09-08T05:29:33;99891.68;;;23.56;100.00
64628;BME280;68467;50.960;0.314;2023-09-08T05:32:00;99892.02;;;24.11;100.00
64628;BME280;68467;50.960;0.314;2023-09-08T05:34:27;99897.26;;;24.04;100.00
64628;BME280;68467;50.960;0.314;2023-09-08T05:36:54;99895.09;;;24.16;100.00
64628;BME280;68467;50.960;0.314;2023-09-08T05:39:20;99891.92;;;24.02;100.00
64628;BME280;68467;50.960;0.314;2023-09-08T05:41:47;99890.27;;;23.74;100.00
64628;BME280;68467;50.960;0.314;2023-09-08T05:44:14;99890.18;;;23.80;100.00
64628;BME280;68467;50.960;0.314;2023-09-08T05:46:41;99893.91;;;23.53;100.00
64628;BME280;68467;50.960;0.314;2023-09-08T05:49:08;99894.41;;;23.07;100.00
64628;BME280;68467;50.960;0.314;2023-09-08T05:51:35;99893.08;;;22.86;100.00
64628;BME280;68467;50.960;0.314;2023-09-08T05:54:02;99887.94;;;23.04;100.00
64628;BME280;68467;50.960;0.314;2023-09-08T05:56:30;99888.79;;;22.46;100.00
64628;BME280;68467;50.960;0.314;2023-09-08T05:58:57;99889.95;;;22.50;100.00
64628;BME280;68467;50.960;0.314;2023-09-08T06:01:24;99893.08;;;21.83;100.00
64628;BME280;68467;50.960;0.314;2023-09-08T06:03:52;99895.49;;;22.48;100.00
64628;BME280;68467;50.960;0.314;2023-09-08T06:06:19;99897.57;;;22.29;100.00
64628;BME280;68467;50.960;0.314;2023-09-08T06:08:46;99902.20;;;21.51;100.00
64628;BME280;68467;50.960;0.314;2023-09-08T06:11:13;99900.81;;;21.64;100.00
64628;BME280;68467;50.960;0.314;2023-09-08T06:13:40;99902.41;;;21.84;100.00
64628;BME280;68467;50.960;0.314;2023-09-08T06:16:07;99906.86;;;21.53;100.00
64628;BME280;68467;50.960;0.314;2023-09-08T06:18:34;99907.21;;;21.92;100.00
64628;BME280;68467;50.960;0.314;2023-09-08T06:21:00;99903.51;;;22.13;100.00
64628;BME280;68467;50.960;0.314;2023-09-08T06:23:27;99905.10;;;22.06;100.00
64628;BME280;68467;50.960;0.314;2023-09-08T06:25:56;99909.29;;;22.32;100.00
64628;BME280;68467;50.960;0.314;2023-09-08T06:28:24;99911.50;;;22.07;100.00
64628;BME280;68467;50.960;0.314;2023-09-08T06:30:51;99912.34;;;22.25;100.00
64628;BME280;68467;50.960;0.314;2023-09-08T06:33:17;99913.50;;;22.56;100.00
64628;BME280;68467;50.960;0.314;2023-09-08T06:35:46;99910.23;;;22.42;100.00
64628;BME280;68467;50.960;0.314;2023-09-08T06:38:14;99909.28;;;22.12;100.00
64628;BME280;68467;50.960;0.314;2023-09-08T06:40:41;99913.42;;;22.56;100.00
64628;BME280;68467;50.960;0.314;2023-09-08T06:43:08;99918.59;;;22.76;100.00
64628;BME280;68467;50.960;0.314;2023-09-08T06:45:37;99920.49;;;23.10;100.00
64628;BME280;68467;50.960;0.314;2023-09-08T06:48:05;99918.37;;;23.32;100.00
64628;BME280;68467;50.960;0.314;2023-09-08T06:50:33;99919.43;;;23.76;100.00
64628;BME280;68467;50.960;0.314;2023-09-08T06:53:00;99922.11;;;24.19;99.29
64628;BME280;68467;50.960;0.314;2023-09-08T06:55:27;99923.91;;;23.12;100.00
64628;BME280;68467;50.960;0.314;2023-09-08T06:57:53;99922.87;;;23.69;100.00
64628;BME280;68467;50.960;0.314;2023-09-08T07:00:20;99920.83;;;23.37;100.00
64628;BME280;68467;50.960;0.314;2023-09-08T07:02:48;99924.39;;;22.65;100.00
64628;BME280;68467;50.960;0.314;2023-09-08T07:05:15;99928.02;;;23.72;100.00
64628;BME280;68467;50.960;0.314;2023-09-08T07:07:42;99934.77;;;23.11;100.00
64628;BME280;68467;50.960;0.314;2023-09-08T07:10:10;99936.13;;;23.09;100.00
64628;BME280;68467;50.960;0.314;2023-09-08T07:12:38;99932.39;;;23.15;100.00
64628;BME280;68467;50.960;0.314;2023-09-08T07:15:06;99933.26;;;23.60;99.30
64628;BME280;68467;50.960;0.314;2023-09-08T07:17:33;99927.57;;;23.74;98.97
64628;BME280;68467;50.960;0.314;2023-09-08T07:20:00;99930.51;;;23.24;99.41
64628;BME280;68467;50.960;0.314;2023-09-08T07:22:26;99936.77;;;23.51;97.64
64628;BME280;68467;50.960;0.314;2023-09-08T07:24:53;99942.05;;;24.13;95.79
64628;BME280;68467;50.960;0.314;2023-09-08T07:27:20;99944.20;;;24.90;95.58
64628;BME280;68467;50.960;0.314;2023-09-08T07:29:47;99943.34;;;24.59;95.86
64628;BME280;68467;50.960;0.314;2023-09-08T07:32:14;99939.39;;;24.80;95.67
64628;BME280;68467;50.960;0.314;2023-09-08T07:34:41;99936.45;;;24.76;95.76
64628;BME280;68467;50.960;0.314;2023-09-08T07:37:08;99938.07;;;24.70;97.44
64628;BME280;68467;50.960;0.314;2023-09-08T07:39:36;99932.66;;;25.70;96.40
64628;BME280;68467;50.960;0.314;2023-09-08T07:42:04;99933.83;;;25.30;96.18
64628;BME280;68467;50.960;0.314;2023-09-08T07:44:32;99932.28;;;25.90;92.45
64628;BME280;68467;50.960;0.314;2023-09-08T07:47:00;99935.98;;;25.19;92.52
64628;BME280;68467;50.960;0.314;2023-09-08T07:49:27;99938.60;;;25.51;91.60
64628;BME280;68467;50.960;0.314;2023-09-08T07:51:54;99939.53;;;26.44;90.59
64628;BME280;68467;50.960;0.314;2023-09-08T07:54:22;99938.99;;;26.71;89.08
64628;BME280;68467;50.960;0.314;2023-09-08T07:56:48;99937.82;;;26.22;90.51
64628;BME280;68467;50.960;0.314;2023-09-08T07:59:15;99934.07;;;26.59;91.36
64628;BME280;68467;50.960;0.314;2023-09-08T08:01:42;99934.03;;;26.81;91.45
64628;BME280;68467;50.960;0.314;2023-09-08T08:04:10;99936.93;;;28.06;90.52
64628;BME280;68467;50.960;0.314;2023-09-08T08:06:37;99943.27;;;28.06;89.48
64628;BME280;68467;50.960;0.314;2023-09-08T08:09:04;99942.07;;;28.03;90.60
64628;BME280;68467;50.960;0.314;2023-09-08T08:11:31;99940.60;;;28.85;91.02
64628;BME280;68467;50.960;0.314;2023-09-08T08:13:59;99942.39;;;29.23;99.70
64628;BME280;68467;50.960;0.314;2023-09-08T08:16:26;99942.42;;;29.02;100.00
64628;BME280;68467;50.960;0.314;2023-09-08T08:18:54;99941.33;;;29.37;100.00
64628;BME280;68467;50.960;0.314;2023-09-08T08:21:22;99939.43;;;28.62;100.00
64628;BME280;68467;50.960;0.314;2023-09-08T08:23:50;99940.35;;;28.29;100.00
64628;BME280;68467;50.960;0.314;2023-09-08T08:26:17;99941.11;;;28.83;100.00
64628;BME280;68467;50.960;0.314;2023-09-08T08:28:44;99942.39;;;28.51;100.00
64628;BME280;68467;50.960;0.314;2023-09-08T08:31:11;99944.60;;;28.43;100.00
64628;BME280;68467;50.960;0.314;2023-09-08T08:33:38;99946.98;;;28.41;100.00
64628;BME280;68467;50.960;0.314;2023-09-08T08:36:06;99945.13;;;28.22;100.00
64628;BME280;68467;50.960;0.314;2023-09-08T08:38:33;99949.27;;;28.13;100.00
64628;BME280;68467;50.960;0.314;2023-09-08T08:41:04;99957.21;;;28.20;100.00
64628;BME280;68467;50.960;0.314;2023-09-08T08:43:32;99960.50;;;28.15;100.00
64628;BME280;68467;50.960;0.314;2023-09-08T08:46:00;99965.25;;;27.88;100.00
64628;BME280;68467;50.960;0.314;2023-09-08T08:48:29;99971.39;;;28.27;100.00
64628;BME280;68467;50.960;0.314;2023-09-08T08:50:57;99974.43;;;28.71;100.00
64628;BME280;68467;50.960;0.314;2023-09-08T08:53:25;99978.23;;;28.01;100.00
64628;BME280;68467;50.960;0.314;2023-09-08T08:55:54;99976.95;;;28.61;98.44
64628;BME280;68467;50.960;0.314;2023-09-08T08:58:23;99973.14;;;28.70;98.53
64628;BME280;68467;50.960;0.314;2023-09-08T09:00:51;99969.66;;;28.80;98.56
64628;BME280;68467;50.960;0.314;2023-09-08T09:03:20;99969.18;;;28.47;99.58
64628;BME280;68467;50.960;0.314;2023-09-08T09:05:48;99971.50;;;28.59;97.69
64628;BME280;68467;50.960;0.314;2023-09-08T09:08:16;99977.60;;;28.93;97.82
64628;BME280;68467;50.960;0.314;2023-09-08T09:10:43;99976.41;;;29.25;99.35
64628;BME280;68467;50.960;0.314;2023-09-08T09:13:10;99973.48;;;27.99;100.00
64628;BME280;68467;50.960;0.314;2023-09-08T09:15:37;99972.82;;;28.81;99.21
64628;BME280;68467;50.960;0.314;2023-09-08T09:18:06;99972.48;;;28.81;98.96
64628;BME280;68467;50.960;0.314;2023-09-08T09:20:34;99971.92;;;29.25;97.84
64628;BME280;68467;50.960;0.314;2023-09-08T09:23:01;99971.63;;;29.57;96.32
64628;BME280;68467;50.960;0.314;2023-09-08T09:25:31;99975.31;;;29.22;95.94
64628;BME280;68467;50.960;0.314;2023-09-08T09:27:59;99974.55;;;29.61;96.74
64628;BME280;68467;50.960;0.314;2023-09-08T09:30:29;99974.39;;;29.66;97.99
64628;BME280;68467;50.960;0.314;2023-09-08T09:33:12;99982.47;;;29.67;97.73
64628;BME280;68467;50.960;0.314;2023-09-08T09:35:41;99985.93;;;29.35;96.92
64628;BME280;68467;50.960;0.314;2023-09-08T09:38:09;99984.91;;;29.87;94.69
64628;BME280;68467;50.960;0.314;2023-09-08T09:40:37;99984.53;;;29.70;93.61
64628;BME280;68467;50.960;0.314;2023-09-08T09:43:05;99982.41;;;28.60;96.63
64628;BME280;68467;50.960;0.314;2023-09-08T09:45:34;99980.91;;;29.53;95.92
64628;BME280;68467;50.960;0.314;2023-09-08T09:48:03;99976.05;;;29.81;94.92
64628;BME280;68467;50.960;0.314;2023-09-08T09:50:32;99974.07;;;30.38;94.37
64628;BME280;68467;50.960;0.314;2023-09-08T09:53:01;99974.63;;;30.32;85.82
64628;BME280;68467;50.960;0.314;2023-09-08T09:55:29;99980.65;;;30.56;90.71
64628;BME280;68467;50.960;0.314;2023-09-08T09:57:57;99988.26;;;30.31;94.52
64628;BME280;68467;50.960;0.314;2023-09-08T10:00:25;99991.59;;;29.71;92.07
64628;BME280;68467;50.960;0.314;2023-09-08T10:02:53;99989.02;;;30.41;91.60
64628;BME280;68467;50.960;0.314;2023-09-08T10:05:21;99989.33;;;30.47;89.98
64628;BME280;68467;50.960;0.314;2023-09-08T10:07:50;99984.11;;;29.77;89.16
64628;BME280;68467;50.960;0.314;2023-09-08T10:10:19;99981.85;;;30.48;89.88
64628;BME280;68467;50.960;0.314;2023-09-08T10:12:51;99979.01;;;30.43;92.29
64628;BME280;68467;50.960;0.314;2023-09-08T10:15:22;99980.21;;;29.85;93.92
64628;BME280;68467;50.960;0.314;2023-09-08T10:17:55;99983.01;;;29.97;94.91
64628;BME280;68467;50.960;0.314;2023-09-08T10:20:23;99983.34;;;29.65;92.42
64628;BME280;68467;50.960;0.314;2023-09-08T10:22:54;99983.74;;;29.90;94.54
64628;BME280;68467;50.960;0.314;2023-09-08T10:25:25;99987.92;;;29.99;92.60
64628;BME280;68467;50.960;0.314;2023-09-08T10:27:53;99985.47;;;29.43;89.17
64628;BME280;68467;50.960;0.314;2023-09-08T10:30:22;99987.72;;;29.52;95.49
64628;BME280;68467;50.960;0.314;2023-09-08T10:32:51;99993.78;;;29.25;93.25
64628;BME280;68467;50.960;0.314;2023-09-08T10:35:18;99996.09;;;29.83;95.88
64628;BME280;68467;50.960;0.314;2023-09-08T10:37:45;99996.29;;;29.87;96.33
64628;BME280;68467;50.960;0.314;2023-09-08T10:40:22;99996.52;;;29.46;93.96
64628;BME280;68467;50.960;0.314;2023-09-08T10:42:50;100002.31;;;29.73;93.54
64628;BME280;68467;50.960;0.314;2023-09-08T10:45:32;100002.82;;;29.73;95.97
64628;BME280;68467;50.960;0.314;2023-09-08T10:48:00;100003.23;;;30.20;95.69
64628;BME280;68467;50.960;0.314;2023-09-08T10:50:34;99999.95;;;30.59;93.63
64628;BME280;68467;50.960;0.314;2023-09-08T10:53:06;99994.15;;;30.57;92.82
64628;BME280;68467;50.960;0.314;2023-09-08T10:55:36;99990.58;;;30.31;90.71
64628;BME280;68467;50.960;0.314;2023-09-08T10:58:04;99984.64;;;30.53;93.04
64628;BME280;68467;50.960;0.314;2023-09-08T11:00:43;99990.69;;;30.89;93.73
64628;BME280;68467;50.960;0.314;2023-09-08T11:03:12;99990.33;;;30.86;90.39
64628;BME280;68467;50.960;0.314;2023-09-08T11:05:41;99988.83;;;30.80;87.28
64628;BME280;68467;50.960;0.314;2023-09-08T11:08:09;99984.59;;;31.27;85.99
64628;BME280;68467;50.960;0.314;2023-09-08T11:10:37;99985.28;;;31.26;91.31
64628;BME280;68467;50.960;0.314;2023-09-08T11:13:05;99987.41;;;31.26;87.88
64628;BME280;68467;50.960;0.314;2023-09-08T11:15:32;99988.36;;;31.37;87.54
64628;BME280;68467;50.960;0.314;2023-09-08T11:18:05;99987.34;;;32.01;88.05
64628;BME280;68467;50.960;0.314;2023-09-08T11:20:34;99987.65;;;31.17;90.32
64628;BME280;68467;50.960;0.314;2023-09-08T11:23:01;99984.45;;;31.69;90.05
64628;BME280;68467;50.960;0.314;2023-09-08T11:25:29;99982.24;;;30.94;86.93
64628;BME280;68467;50.960;0.314;2023-09-08T11:27:57;99981.46;;;31.80;85.46
64628;BME280;68467;50.960;0.314;2023-09-08T11:30:25;99986.12;;;31.52;86.02
64628;BME280;68467;50.960;0.314;2023-09-08T11:32:53;99983.69;;;32.11;84.68
64628;BME280;68467;50.960;0.314;2023-09-08T11:35:21;99984.70;;;32.34;86.66
64628;BME280;68467;50.960;0.314;2023-09-08T11:37:48;99980.73;;;32.14;86.68
64628;BME280;68467;50.960;0.314;2023-09-08T11:40:16;99983.31;;;30.89;88.03
64628;BME280;68467;50.960;0.314;2023-09-08T11:42:43;99979.51;;;31.87;87.55
64628;BME280;68467;50.960;0.314;2023-09-08T11:45:11;99976.21;;;32.24;87.14
64628;BME280;68467;50.960;0.314;2023-09-08T11:47:41;99974.19;;;32.36;86.89
64628;BME280;68467;50.960;0.314;2023-09-08T11:50:09;99970.74;;;32.70;86.25
64628;BME280;68467;50.960;0.314;2023-09-08T11:52:37;99971.75;;;32.77;85.19
64628;BME280;68467;50.960;0.314;2023-09-08T11:55:05;99968.26;;;33.21;84.51
64628;BME280;68467;50.960;0.314;2023-09-08T11:57:32;99968.69;;;33.10;83.76
64628;BME280;68467;50.960;0.314;2023-09-08T12:00:01;99967.23;;;33.98;80.25
64628;BME280;68467;50.960;0.314;2023-09-08T12:02:28;99963.98;;;33.56;81.92
64628;BME280;68467;50.960;0.314;2023-09-08T12:04:56;99963.17;;;33.33;82.45
64628;BME280;68467;50.960;0.314;2023-09-08T12:07:23;99961.32;;;33.89;79.06
64628;BME280;68467;50.960;0.314;2023-09-08T12:09:50;99961.15;;;34.22;79.29
64628;BME280;68467;50.960;0.314;2023-09-08T12:12:17;99964.84;;;33.89;81.34
64628;BME280;68467;50.960;0.314;2023-09-08T12:14:45;99966.26;;;34.24;79.28
64628;BME280;68467;50.960;0.314;2023-09-08T12:17:13;99963.47;;;34.16;80.27
64628;BME280;68467;50.960;0.314;2023-09-08T12:19:39;99963.09;;;33.92;80.53
64628;BME280;68467;50.960;0.314;2023-09-08T12:22:07;99959.45;;;34.07;79.17
64628;BME280;68467;50.960;0.314;2023-09-08T12:24:56;99959.46;;;34.21;80.11
64628;BME280;68467;50.960;0.314;2023-09-08T12:27:24;99960.35;;;34.20;80.44
64628;BME280;68467;50.960;0.314;2023-09-08T12:29:53;99957.23;;;32.98;81.62
64628;BME280;68467;50.960;0.314;2023-09-08T12:32:20;99956.28;;;33.13;82.38
64628;BME280;68467;50.960;0.314;2023-09-08T12:34:47;99962.10;;;33.47;81.03
64628;BME280;68467;50.960;0.314;2023-09-08T12:37:14;99959.79;;;32.98;81.70
64628;BME280;68467;50.960;0.314;2023-09-08T12:39:46;99956.54;;;33.24;83.06
64628;BME280;68467;50.960;0.314;2023-09-08T12:42:13;99954.40;;;33.13;82.01
64628;BME280;68467;50.960;0.314;2023-09-08T12:44:40;99953.63;;;33.00;83.56
64628;BME280;68467;50.960;0.314;2023-09-08T12:47:08;99953.23;;;32.46;82.76
64628;BME280;68467;50.960;0.314;2023-09-08T12:49:36;99952.19;;;32.91;81.40
64628;BME280;68467;50.960;0.314;2023-09-08T12:52:04;99950.53;;;32.20;82.56
64628;BME280;68467;50.960;0.314;2023-09-08T12:54:31;99949.50;;;31.60;86.49
64628;BME280;68467;50.960;0.314;2023-09-08T12:56:59;99946.45;;;32.33;86.00
64628;BME280;68467;50.960;0.314;2023-09-08T12:59:26;99948.21;;;31.95;85.51